Time;durP1;ratioP1;P1;durP2;ratioP2;P2;SDS_P1;SDS_P2;PMS_P1;PMS_P2;Temp;Humidity;BMP_temperature;BMP_pressure;BME280_temperature;BME280_humidity;BME280_pressure;Samples;Min_cycle;Max_cycle;Signal;HPM_P1;HPM_P2
2023/09/26 00:00:21;;;;;;;3.70;2.60;;;;;;;12.49;72.22;101703.97;5035505;28;20272;-74
2023/09/26 00:02:52;;;;;;;3.30;3.00;;;;;;;12.28;73.19;101697.97;5035414;28;20194;-75
2023/09/26 00:05:23;;;;;;;7.30;3.50;;;;;;;12.18;74.33;101702.53;5036572;28;20203;-73
2023/09/26 00:07:54;;;;;;;4.90;3.60;;;;;;;12.02;75.21;101700.47;5036790;28;20672;-73
2023/09/26 00:10:23;;;;;;;3.97;3.20;;;;;;;12.02;75.32;101696.97;5036936;28;20298;-73
2023/09/26 00:12:52;;;;;;;3.40;3.00;;;;;;;11.98;74.98;101695.56;5037825;28;20741;-73
2023/09/26 00:15:20;;;;;;;5.23;3.17;;;;;;;12.02;73.91;101696.97;5035316;28;20202;-73
2023/09/26 00:17:49;;;;;;;5.90;3.40;;;;;;;12.12;73.72;101685.16;5035362;28;20203;-74
2023/09/26 00:20:18;;;;;;;4.73;3.27;;;;;;;12.28;73.39;101686.38;5035260;28;20207;-74
2023/09/26 00:22:48;;;;;;;4.87;3.30;;;;;;;12.32;73.68;101688.63;5034570;28;20224;-75
2023/09/26 00:25:17;;;;;;;4.47;3.10;;;;;;;12.40;72.73;101686.03;5035062;28;20282;-75
2023/09/26 00:27:45;;;;;;;4.33;3.10;;;;;;;12.27;73.18;101685.53;5034866;28;20258;-75
2023/09/26 00:30:14;;;;;;;4.03;3.30;;;;;;;12.18;73.12;101681.06;5034904;28;20211;-75
2023/09/26 00:32:43;;;;;;;6.40;3.40;;;;;;;12.04;73.84;101684.22;5034536;28;20557;-75
2023/09/26 00:35:13;;;;;;;6.17;3.40;;;;;;;12.10;73.05;101680.94;5034841;28;20226;-75
2023/09/26 00:37:42;;;;;;;4.37;3.03;;;;;;;12.16;72.94;101685.72;5034777;28;20202;-75
2023/09/26 00:40:16;;;;;;;4.87;3.40;;;;;;;12.03;73.94;101685.22;5034430;28;20211;-75
2023/09/26 00:42:45;;;;;;;3.90;3.30;;;;;;;11.93;74.35;101687.09;5034654;28;20186;-75
2023/09/26 00:45:13;;;;;;;4.47;3.37;;;;;;;11.82;74.98;101676.50;5034569;28;20692;-75
2023/09/26 00:47:43;;;;;;;3.80;3.33;;;;;;;11.73;75.33;101670.19;5034468;28;20222;-75
2023/09/26 00:50:13;;;;;;;5.07;3.67;;;;;;;11.72;74.83;101671.19;5034512;28;20203;-75
2023/09/26 00:52:44;;;;;;;4.87;2.80;;;;;;;11.72;75.75;101673.00;5033258;28;20209;-75
2023/09/26 00:55:17;;;;;;;4.30;3.17;;;;;;;11.75;74.25;101670.06;5034539;28;20273;-75
2023/09/26 00:57:46;;;;;;;3.90;3.20;;;;;;;11.82;73.25;101679.19;5034138;28;20548;-75
2023/09/26 01:00:19;;;;;;;3.93;3.20;;;;;;;11.86;74.41;101681.47;5034254;28;20578;-75
2023/09/26 01:02:48;;;;;;;3.63;3.10;;;;;;;11.83;74.96;101678.22;5034221;28;20688;-75
2023/09/26 01:05:17;;;;;;;5.67;3.70;;;;;;;11.68;74.06;101673.28;5034275;28;20257;-75
2023/09/26 01:07:46;;;;;;;3.93;3.43;;;;;;;11.56;75.36;101669.06;5034099;28;20226;-75
2023/09/26 01:10:16;;;;;;;6.07;3.57;;;;;;;11.48;75.99;101674.31;5034417;28;20226;-75
2023/09/26 01:12:45;;;;;;;3.93;3.23;;;;;;;11.42;76.11;101674.88;5034295;28;20213;-75
2023/09/26 01:15:13;;;;;;;4.33;3.30;;;;;;;11.41;75.24;101670.50;5034061;28;20210;-75
2023/09/26 01:17:42;;;;;;;5.00;3.30;;;;;;;11.44;76.47;101675.56;5034033;28;20202;-75
2023/09/26 01:20:16;;;;;;;3.87;3.43;;;;;;;11.46;76.44;101667.41;5033997;28;20211;-75
2023/09/26 01:22:46;;;;;;;4.37;3.23;;;;;;;11.42;75.70;101666.00;5033949;28;20230;-75
2023/09/26 01:25:17;;;;;;;3.30;3.00;;;;;;;11.40;76.26;101662.63;5033942;28;20225;-75
2023/09/26 01:27:46;;;;;;;3.70;3.40;;;;;;;11.32;75.75;101666.00;5033777;28;20226;-75
2023/09/26 01:30:16;;;;;;;4.23;3.50;;;;;;;11.25;76.74;101659.53;5033817;28;20224;-75
2023/09/26 01:32:46;;;;;;;3.93;3.20;;;;;;;11.23;76.14;101661.50;5033752;28;20206;-75
2023/09/26 01:35:15;;;;;;;5.00;3.23;;;;;;;11.33;76.57;101661.50;5034039;28;20214;-75
2023/09/26 01:37:43;;;;;;;5.10;3.20;;;;;;;11.41;76.09;101658.94;5033748;28;20297;-74
2023/09/26 01:40:15;;;;;;;4.37;3.53;;;;;;;11.45;75.11;101655.81;5033723;28;20230;-75
2023/09/26 01:42:45;;;;;;;6.40;3.70;;;;;;;11.29;75.63;101655.56;5033307;28;20641;-75
2023/09/26 01:45:14;;;;;;;4.70;3.83;;;;;;;11.22;75.53;101659.81;5033613;28;20220;-75
2023/09/26 01:47:45;;;;;;;4.77;3.60;;;;;;;11.20;77.22;101656.41;5033243;28;20249;-75
2023/09/26 01:50:14;;;;;;;6.40;3.80;;;;;;;11.09;77.17;101657.44;5033678;28;20607;-75
2023/09/26 01:52:44;;;;;;;7.27;4.20;;;;;;;11.05;77.69;101655.16;5033445;28;20233;-75
2023/09/26 01:55:14;;;;;;;5.40;3.73;;;;;;;10.97;77.32;101655.00;5033525;28;20280;-74
2023/09/26 01:57:45;;;;;;;5.17;3.77;;;;;;;11.01;77.53;101653.75;5033525;28;20192;-74
2023/09/26 02:00:15;;;;;;;7.33;3.63;;;;;;;11.15;77.34;101653.31;5033161;28;20241;-75
2023/09/26 02:02:44;;;;;;;4.87;3.73;;;;;;;11.08;77.21;101652.19;5033312;28;20302;-75
2023/09/26 02:05:15;;;;;;;4.10;3.67;;;;;;;11.02;76.36;101655.44;5034006;28;20222;-75
2023/09/26 02:07:45;;;;;;;4.87;3.77;;;;;;;10.96;77.28;101651.47;5033065;28;20237;-75
2023/09/26 02:10:14;;;;;;;4.00;3.60;;;;;;;11.05;76.87;101653.34;5033360;28;20213;-76
2023/09/26 02:12:46;;;;;;;5.07;3.50;;;;;;;11.19;75.91;101649.38;5033246;28;20209;-76
2023/09/26 02:15:15;;;;;;;5.20;3.73;;;;;;;11.11;76.24;101649.22;5033398;28;20205;-76
2023/09/26 02:17:44;;;;;;;4.60;3.90;;;;;;;10.98;76.73;101652.19;5033516;28;20234;-76
2023/09/26 02:20:16;;;;;;;6.90;4.07;;;;;;;11.02;76.21;101647.41;5033226;28;20210;-76
2023/09/26 02:22:46;;;;;;;5.17;3.43;;;;;;;11.07;76.18;101642.44;5033047;28;20191;-76
2023/09/26 02:25:16;;;;;;;4.60;3.80;;;;;;;11.13;75.78;101640.03;5033266;28;20191;-76
2023/09/26 02:27:47;;;;;;;5.23;3.53;;;;;;;11.08;75.39;101645.00;5033176;28;20241;-76
2023/09/26 02:30:19;;;;;;;4.00;3.60;;;;;;;10.93;75.90;101637.50;5033466;28;20199;-76
2023/09/26 02:32:47;;;;;;;4.53;3.93;;;;;;;10.89;76.17;101630.78;5033122;28;20233;-76
2023/09/26 02:35:19;;;;;;;5.47;3.60;;;;;;;10.92;76.33;101630.47;5032506;28;20213;-77
2023/09/26 02:37:47;;;;;;;4.13;3.73;;;;;;;10.89;76.32;101628.09;5033078;28;20187;-77
2023/09/26 02:40:16;;;;;;;4.60;4.00;;;;;;;10.78;76.81;101638.94;5032716;28;20257;-77
2023/09/26 02:42:45;;;;;;;4.73;3.80;;;;;;;10.72;77.53;101624.25;5032850;28;20210;-77
2023/09/26 02:45:15;;;;;;;4.43;4.03;;;;;;;10.66;78.04;101631.03;5032983;28;20218;-77
2023/09/26 02:47:44;;;;;;;4.47;3.83;;;;;;;10.89;77.31;101630.78;5032623;28;20286;-77
2023/09/26 02:50:13;;;;;;;4.57;4.03;;;;;;;11.06;75.31;101635.44;5032905;28;20276;-77
2023/09/26 02:52:43;;;;;;;5.23;4.27;;;;;;;11.04;75.57;101640.06;5032960;28;20322;-77
2023/09/26 02:55:12;;;;;;;6.33;4.07;;;;;;;11.08;75.60;101642.31;5032930;28;20210;-77
2023/09/26 02:57:40;;;;;;;4.90;4.40;;;;;;;11.01;75.18;101637.66;5032942;28;20222;-77
2023/09/26 03:00:16;;;;;;;6.17;4.30;;;;;;;10.86;77.50;101641.75;5032921;28;20225;-77
2023/09/26 03:02:49;;;;;;;6.43;4.10;;;;;;;10.72;77.61;101639.50;5033066;28;20191;-77
2023/09/26 03:05:18;;;;;;;5.70;4.53;;;;;;;10.71;76.76;101633.28;5032888;28;20199;-77
2023/09/26 03:07:46;;;;;;;4.67;4.23;;;;;;;10.70;76.85;101636.94;5032877;28;20234;-77
2023/09/26 03:10:15;;;;;;;4.70;4.20;;;;;;;10.65;77.27;101632.00;5032757;28;20330;-77
2023/09/26 03:12:48;;;;;;;5.57;4.70;;;;;;;10.59;77.77;101635.25;5032721;28;20237;-77
2023/09/26 03:15:17;;;;;;;5.50;4.27;;;;;;;10.58;78.13;101638.88;5032905;28;20768;-77
2023/09/26 03:17:47;;;;;;;4.13;3.73;;;;;;;10.62;76.95;101623.41;5036349;28;20210;-77
2023/09/26 03:20:16;;;;;;;5.50;4.27;;;;;;;10.60;76.21;101628.06;5036524;28;20188;-77
2023/09/26 03:22:45;;;;;;;5.03;4.23;;;;;;;10.47;77.52;101628.31;5035732;28;20555;-77
2023/09/26 03:25:14;;;;;;;5.00;3.73;;;;;;;10.43;78.05;101624.22;5036235;28;20249;-77
2023/09/26 03:27:43;;;;;;;5.33;4.03;;;;;;;10.58;77.29;101616.66;5036144;28;20565;-77
2023/09/26 03:30:15;;;;;;;5.70;4.00;;;;;;;10.63;76.81;101620.59;5035685;28;20223;-77
2023/09/26 03:32:44;;;;;;;4.67;3.80;;;;;;;10.55;76.96;101623.09;5035955;28;20281;-77
2023/09/26 03:35:14;;;;;;;5.50;3.83;;;;;;;10.71;77.09;101622.56;5036056;28;20210;-77
2023/09/26 03:37:42;;;;;;;4.10;3.70;;;;;;;10.78;76.58;101628.22;5035875;28;20566;-77
2023/09/26 03:40:11;;;;;;;4.43;3.90;;;;;;;10.81;76.65;101633.28;5035614;28;20699;-77
2023/09/26 03:42:40;;;;;;;4.27;3.87;;;;;;;10.85;75.73;101632.03;5035864;28;20288;-77
2023/09/26 03:45:09;;;;;;;5.77;4.57;;;;;;;10.74;75.79;101629.47;5035827;28;20211;-77
2023/09/26 03:47:37;;;;;;;6.80;4.07;;;;;;;10.50;77.23;101629.88;5035696;28;20249;-77
2023/09/26 03:50:08;;;;;;;5.03;4.63;;;;;;;10.48;76.63;101627.31;5035584;28;20231;-77
2023/09/26 03:52:37;;;;;;;6.30;4.90;;;;;;;10.54;76.69;101626.78;5035685;28;20207;-77
2023/09/26 03:55:06;;;;;;;9.90;4.90;;;;;;;10.38;77.28;101623.78;5035284;28;20803;-77
2023/09/26 03:57:36;;;;;;;5.53;4.93;;;;;;;10.40;77.14;101627.19;5035782;28;20257;-77
2023/09/26 04:00:12;;;;;;;4.90;4.33;;;;;;;10.40;76.71;101624.50;5035101;28;20552;-77
2023/09/26 04:02:40;;;;;;;5.00;4.50;;;;;;;10.44;77.26;101619.72;5035139;28;20226;-77
2023/09/26 04:05:09;;;;;;;6.10;4.20;;;;;;;10.40;76.97;101627.19;5035028;28;20202;-77
2023/09/26 04:07:40;;;;;;;4.87;4.37;;;;;;;10.40;76.77;101612.94;5035180;28;20211;-77
2023/09/26 04:10:09;;;;;;;4.57;4.17;;;;;;;10.29;76.21;101611.22;5034384;28;20215;-77
2023/09/26 04:12:38;;;;;;;5.97;4.63;;;;;;;10.35;77.30;101605.31;5033734;28;20249;-77
2023/09/26 04:15:07;;;;;;;5.43;4.60;;;;;;;10.14;77.37;101601.88;5034727;28;20266;-77
2023/09/26 04:17:36;;;;;;;5.33;4.30;;;;;;;10.14;77.65;101612.59;5035121;28;20203;-77
2023/09/26 04:20:10;;;;;;;5.50;4.27;;;;;;;10.24;77.13;101607.28;5034799;28;20249;-77
2023/09/26 04:22:55;;;;;;;4.60;4.20;;;;;;;10.24;76.77;101613.44;5034895;28;20222;-78
2023/09/26 04:25:23;;;;;;;6.60;4.67;;;;;;;10.10;77.20;101605.81;5034742;28;20614;-77
2023/09/26 04:27:52;;;;;;;5.23;4.23;;;;;;;10.08;77.93;101603.25;5034822;28;20246;-77
2023/09/26 04:30:21;;;;;;;4.33;3.90;;;;;;;10.08;76.95;101597.03;5034961;28;20222;-77
2023/09/26 04:32:49;;;;;;;4.70;4.20;;;;;;;10.14;77.42;101599.19;5034995;28;20302;-77
2023/09/26 04:35:18;;;;;;;4.70;4.17;;;;;;;10.12;76.35;101591.31;5034791;28;20294;-77
2023/09/26 04:37:47;;;;;;;4.70;4.20;;;;;;;10.14;76.25;101592.03;5034450;28;20306;-77
2023/09/26 04:40:18;;;;;;;4.93;4.30;;;;;;;10.17;76.78;101593.59;5034428;28;20680;-77
2023/09/26 04:42:48;;;;;;;4.60;4.10;;;;;;;10.10;76.68;101595.09;5034716;28;20599;-77
2023/09/26 04:45:17;;;;;;;4.37;3.90;;;;;;;10.04;77.08;101588.44;5034657;28;20285;-77
2023/09/26 04:47:45;;;;;;;7.10;4.50;;;;;;;10.04;76.75;101584.91;5034577;28;20234;-77
2023/09/26 04:50:14;;;;;;;4.43;4.03;;;;;;;9.90;77.25;101583.47;5034725;28;20238;-77
2023/09/26 04:52:42;;;;;;;5.00;4.43;;;;;;;9.81;78.15;101586.97;5034508;28;20211;-77
2023/09/26 04:55:12;;;;;;;4.63;4.23;;;;;;;9.99;77.92;101587.19;5034176;28;20580;-77
2023/09/26 04:57:44;;;;;;;4.63;4.20;;;;;;;10.05;77.14;101581.28;5034685;28;20211;-77
2023/09/26 05:00:17;;;;;;;6.50;4.67;;;;;;;10.09;77.18;101582.69;5034120;28;20633;-77
2023/09/26 05:02:46;;;;;;;4.97;4.23;;;;;;;10.13;76.75;101584.13;5034082;28;20641;-77
2023/09/26 05:05:14;;;;;;;5.60;4.70;;;;;;;10.17;76.33;101581.03;5034260;28;20280;-77
2023/09/26 05:07:46;;;;;;;4.63;4.10;;;;;;;10.21;76.80;101575.41;5034259;28;20246;-77
2023/09/26 05:10:15;;;;;;;6.77;4.63;;;;;;;10.01;77.17;101574.50;5034943;28;20293;-77
2023/09/26 05:12:44;;;;;;;6.60;5.10;;;;;;;10.04;77.48;101579.56;5034083;28;20211;-77
2023/09/26 05:15:15;;;;;;;6.20;4.87;;;;;;;9.94;77.75;101568.00;5034124;28;20306;-77
2023/09/26 05:17:47;;;;;;;6.43;4.40;;;;;;;9.90;76.76;101574.59;5033729;28;20625;-78
2023/09/26 05:20:16;;;;;;;5.47;4.90;;;;;;;9.81;77.87;101578.94;5034343;28;20194;-78
2023/09/26 05:22:46;;;;;;;6.13;4.17;;;;;;;9.79;78.50;101580.06;5034010;28;20207;-78
2023/09/26 05:25:14;;;;;;;4.40;4.00;;;;;;;9.79;78.17;101569.38;5033960;28;20282;-78
2023/09/26 05:27:47;;;;;;;7.63;4.60;;;;;;;9.87;77.81;101570.38;5033956;28;20273;-78
2023/09/26 05:30:16;;;;;;;5.70;4.77;;;;;;;9.83;78.02;101576.16;5033811;28;20337;-78
2023/09/26 05:32:47;;;;;;;7.00;4.50;;;;;;;9.89;77.44;101584.47;5033741;28;20206;-78
2023/09/26 05:35:16;;;;;;;6.20;4.03;;;;;;;9.90;77.51;101582.63;5033833;28;20245;-78
2023/09/26 05:37:45;;;;;;;6.07;4.30;;;;;;;9.89;77.30;101586.28;5033673;28;20211;-78
2023/09/26 05:40:14;;;;;;;6.50;4.30;;;;;;;9.94;77.45;101584.03;5033308;28;20620;-78
2023/09/26 05:42:42;;;;;;;5.27;4.23;;;;;;;9.97;77.06;101586.44;5033698;28;20218;-78
2023/09/26 05:45:12;;;;;;;7.90;4.73;;;;;;;9.96;77.42;101588.31;5033654;28;20230;-78
2023/09/26 05:47:41;;;;;;;5.53;4.30;;;;;;;10.00;77.49;101586.19;5033310;28;20253;-78
2023/09/26 05:50:10;;;;;;;6.47;4.80;;;;;;;9.93;77.49;101582.38;5033487;28;20226;-78
2023/09/26 05:52:39;;;;;;;7.63;4.67;;;;;;;9.92;77.93;101586.03;5033267;28;20653;-78
2023/09/26 05:55:08;;;;;;;7.43;4.63;;;;;;;9.93;78.34;101593.06;5033424;28;20222;-78
2023/09/26 05:57:37;;;;;;;12.30;4.83;;;;;;;9.88;79.13;101595.28;5033526;28;20298;-78
2023/09/26 06:00:12;;;;;;;11.37;5.00;;;;;;;9.94;79.82;101592.06;5033464;28;20234;-78
2023/09/26 06:02:42;;;;;;;10.83;5.00;;;;;;;9.86;80.37;101592.78;5033489;28;20194;-78
2023/09/26 06:05:12;;;;;;;9.40;4.90;;;;;;;9.92;80.34;101586.03;5033106;28;20580;-78
2023/09/26 06:07:41;;;;;;;7.20;4.70;;;;;;;9.93;80.55;101598.41;5033400;28;20219;-78
2023/09/26 06:10:11;;;;;;;9.90;5.10;;;;;;;9.93;80.05;101593.06;5033322;28;20316;-78
2023/09/26 06:12:39;;;;;;;8.13;4.90;;;;;;;9.97;80.78;101597.16;5033431;28;20190;-78
2023/09/26 06:15:10;;;;;;;12.37;5.10;;;;;;;9.97;80.80;101594.47;5033041;28;20301;-78
2023/09/26 06:17:39;;;;;;;8.60;5.00;;;;;;;10.01;81.46;101593.22;5033597;28;20210;-78
2023/09/26 06:20:11;;;;;;;5.33;4.83;;;;;;;10.02;81.41;101592.25;5033524;28;20206;-78
2023/09/26 06:22:40;;;;;;;6.90;4.80;;;;;;;10.01;81.97;101586.03;5033194;28;20218;-78
2023/09/26 06:25:10;;;;;;;7.33;5.13;;;;;;;10.05;81.82;101591.97;5033314;28;20191;-78
2023/09/26 06:27:39;;;;;;;6.27;5.13;;;;;;;10.05;82.04;101589.28;5033542;28;20218;-78
2023/09/26 06:30:10;;;;;;;9.00;5.10;;;;;;;10.06;82.15;101591.00;5032829;28;20242;-78
2023/09/26 06:32:39;;;;;;;9.03;5.80;;;;;;;10.08;82.95;101586.34;5033201;28;20195;-78
2023/09/26 06:35:10;;;;;;;8.67;5.97;;;;;;;10.10;83.80;101589.75;5033047;28;20223;-78
2023/09/26 06:37:38;;;;;;;6.63;5.80;;;;;;;10.10;83.10;101593.25;5033194;28;20192;-78
2023/09/26 06:40:08;;;;;;;5.70;5.10;;;;;;;10.12;82.95;101593.97;5033084;28;20206;-78
2023/09/26 06:42:37;;;;;;;5.83;5.23;;;;;;;10.13;84.29;101594.81;5033107;28;20214;-78
2023/09/26 06:45:09;;;;;;;6.33;5.50;;;;;;;10.14;84.32;101589.34;5033506;28;20239;-78
2023/09/26 06:47:38;;;;;;;6.90;6.13;;;;;;;10.15;84.54;101593.72;5033042;28;20203;-78
2023/09/26 06:50:12;;;;;;;9.50;6.03;;;;;;;10.17;85.13;101597.09;5032969;28;20241;-78
2023/09/26 06:52:41;;;;;;;7.93;6.43;;;;;;;10.20;85.64;101601.34;5036569;28;20641;-78
2023/09/26 06:55:10;;;;;;;11.87;6.77;;;;;;;10.23;86.16;101600.22;5036769;28;20203;-78
2023/09/26 06:57:40;;;;;;;6.67;6.00;;;;;;;10.25;86.71;101603.59;5037500;28;20213;-78
2023/09/26 07:00:13;;;;;;;8.10;6.57;;;;;;;10.27;87.37;101605.19;5036677;28;20207;-78
2023/09/26 07:02:42;;;;;;;7.00;6.30;;;;;;;10.32;87.82;101610.94;5036641;28;20191;-78
2023/09/26 07:05:12;;;;;;;8.10;6.60;;;;;;;10.37;88.41;101615.91;5036552;28;20245;-78
2023/09/26 07:07:41;;;;;;;5.83;5.00;;;;;;;10.37;87.22;101611.41;5036615;28;20203;-78
2023/09/26 07:10:10;;;;;;;9.63;7.67;;;;;;;10.42;87.80;101603.78;5036522;28;20290;-78
2023/09/26 07:12:39;;;;;;;7.80;6.07;;;;;;;10.46;87.62;101610.56;5036352;28;20262;-78
2023/09/26 07:15:12;;;;;;;8.33;6.90;;;;;;;10.51;88.49;101602.13;5036392;28;20333;-78
2023/09/26 07:17:41;;;;;;;8.03;7.23;;;;;;;10.55;89.29;101604.38;5036549;28;20191;-71
2023/09/26 07:20:15;;;;;;;7.20;6.50;;;;;;;10.59;88.14;101597.75;5036006;28;20278;-75
2023/09/26 07:22:44;;;;;;;7.10;6.13;;;;;;;10.66;89.11;101596.22;5035987;28;20188;-76
2023/09/26 07:25:13;;;;;;;7.07;5.90;;;;;;;10.69;88.72;101592.38;5036159;28;20261;-76
2023/09/26 07:27:42;;;;;;;7.73;6.60;;;;;;;10.74;88.64;101600.88;5036090;28;20210;-76
2023/09/26 07:30:15;;;;;;;7.40;6.30;;;;;;;10.84;89.10;101601.72;5035995;28;20202;-76
2023/09/26 07:32:44;;;;;;;9.03;6.80;;;;;;;10.88;89.00;101594.25;5035716;28;20230;-76
2023/09/26 07:35:14;;;;;;;10.33;8.10;;;;;;;10.98;89.40;101603.13;5035924;28;20211;-76
2023/09/26 07:37:43;;;;;;;9.40;6.73;;;;;;;11.03;90.37;101595.47;5035870;28;20241;-77
2023/09/26 07:40:12;;;;;;;9.27;7.53;;;;;;;11.08;90.34;101590.56;5035501;28;20221;-76
2023/09/26 07:42:40;;;;;;;10.57;7.77;;;;;;;11.14;90.22;101593.50;5035778;28;20302;-76
2023/09/26 07:45:14;;;;;;;10.50;7.13;;;;;;;11.24;90.26;101600.69;5035791;28;20337;-76
2023/09/26 07:47:42;;;;;;;10.03;7.73;;;;;;;11.38;90.21;101606.44;5035448;28;20718;-76
2023/09/26 07:50:11;;;;;;;10.67;7.43;;;;;;;11.43;89.95;101598.81;5035655;28;20290;-76
2023/09/26 07:52:42;;;;;;;9.07;7.57;;;;;;;11.53;89.23;101605.00;5035548;28;20227;-76
2023/09/26 07:55:12;;;;;;;14.60;8.03;;;;;;;11.61;90.49;101599.75;5035576;28;20249;-76
2023/09/26 07:57:40;;;;;;;9.30;8.00;;;;;;;11.77;90.69;101601.84;5035825;28;20298;-77
2023/09/26 08:00:12;;;;;;;15.23;8.03;;;;;;;11.86;88.72;101602.78;5035199;28;20306;-77
2023/09/26 08:02:41;;;;;;;10.73;7.93;;;;;;;11.97;89.32;101602.59;5035024;28;20278;-77
2023/09/26 08:05:10;;;;;;;8.70;7.80;;;;;;;12.15;86.77;101604.38;5035355;28;20211;-76
2023/09/26 08:07:42;;;;;;;11.57;7.67;;;;;;;12.32;85.78;101607.22;5035380;28;20277;-76
2023/09/26 08:10:12;;;;;;;9.23;7.37;;;;;;;12.40;85.80;101608.16;5035336;28;20557;-76
2023/09/26 08:12:42;;;;;;;7.80;6.97;;;;;;;12.48;86.67;101605.56;5035216;28;20222;-76
2023/09/26 08:15:11;;;;;;;7.83;6.37;;;;;;;12.56;85.81;101594.91;5035216;28;20211;-76
2023/09/26 08:17:40;;;;;;;8.30;6.43;;;;;;;12.67;84.14;101604.59;5034867;28;20210;-76
2023/09/26 08:20:09;;;;;;;9.53;6.57;;;;;;;12.83;83.70;101606.59;5035117;28;20202;-76
2023/09/26 08:22:39;;;;;;;6.43;5.43;;;;;;;12.92;83.43;101600.28;5034639;28;20257;-76
2023/09/26 08:25:09;;;;;;;6.40;5.80;;;;;;;13.03;83.27;101595.50;5034661;28;20670;-76
2023/09/26 08:27:39;;;;;;;7.70;5.73;;;;;;;13.13;82.50;101588.22;5035195;28;20209;-76
2023/09/26 08:30:11;;;;;;;6.00;5.40;;;;;;;13.24;81.64;101588.97;5034594;28;20747;-76
2023/09/26 08:32:40;;;;;;;8.47;5.83;;;;;;;13.35;81.74;101592.28;5034840;28;20215;-76
2023/09/26 08:35:10;;;;;;;7.03;5.50;;;;;;;13.52;80.48;101586.00;5034765;28;20723;-76
2023/09/26 08:37:40;;;;;;;6.27;5.33;;;;;;;13.82;79.18;101579.25;5034796;28;20207;-76
2023/09/26 08:40:11;;;;;;;8.60;5.70;;;;;;;13.87;79.13;101584.16;5034934;28;20298;-77
2023/09/26 08:42:45;;;;;;;7.43;5.73;;;;;;;14.03;79.80;101582.38;5034398;28;20752;-77
2023/09/26 08:45:15;;;;;;;9.30;6.07;;;;;;;14.10;80.59;101577.19;5034681;28;20197;-76
2023/09/26 08:47:44;;;;;;;5.80;5.20;;;;;;;14.24;81.19;101587.34;5034583;28;20242;-77
2023/09/26 08:50:13;;;;;;;6.97;5.17;;;;;;;14.29;80.79;101576.06;5034502;28;20213;-76
2023/09/26 08:52:42;;;;;;;8.17;5.37;;;;;;;14.38;80.74;101581.38;5034598;28;20226;-76
2023/09/26 08:55:11;;;;;;;6.17;5.53;;;;;;;14.45;81.91;101584.25;5034144;28;20673;-76
2023/09/26 08:57:42;;;;;;;5.67;4.93;;;;;;;14.51;81.19;101579.03;5034058;28;20210;-76
2023/09/26 09:00:13;;;;;;;6.77;5.00;;;;;;;14.58;81.00;101574.66;5034379;28;20278;-76
2023/09/26 09:02:41;;;;;;;8.53;5.03;;;;;;;14.69;81.50;101577.00;5035164;28;20187;-76
2023/09/26 09:05:11;;;;;;;5.13;4.60;;;;;;;14.75;81.65;101580.06;5033876;28;20651;-75
2023/09/26 09:07:40;;;;;;;5.00;4.50;;;;;;;15.00;77.40;101576.38;5034217;28;20260;-74
2023/09/26 09:10:11;;;;;;;7.83;4.93;;;;;;;15.09;77.20;101559.19;5033870;28;20210;-74
2023/09/26 09:12:43;;;;;;;7.20;4.57;;;;;;;15.13;77.56;101557.84;5033533;28;20630;-74
2023/09/26 09:15:23;;;;;;;7.63;4.93;;;;;;;15.34;76.47;101568.94;5033758;28;20195;-77
2023/09/26 09:17:53;;;;;;;6.87;5.07;;;;;;;15.46;76.01;101570.25;5033778;28;20205;-77
2023/09/26 09:20:33;;;;;;;8.77;4.53;;;;;;;15.47;79.04;101563.00;5034001;28;20206;-77
2023/09/26 09:23:03;;;;;;;6.83;4.90;;;;;;;15.53;76.55;101562.34;5033774;28;20210;-77
2023/09/26 09:25:34;;;;;;;11.53;5.20;;;;;;;15.70;76.19;101563.97;5033942;28;20199;-76
2023/09/26 09:28:07;;;;;;;7.30;4.87;;;;;;;15.88;74.67;101561.06;5033929;28;20187;-76
2023/09/26 09:30:39;;;;;;;5.50;4.83;;;;;;;16.04;73.64;101567.22;5033882;28;20621;-76
2023/09/26 09:33:09;;;;;;;8.53;5.00;;;;;;;16.09;74.35;101564.00;5033652;28;20242;-76
2023/09/26 09:35:38;;;;;;;5.30;4.30;;;;;;;16.14;74.85;101556.19;5033947;28;20215;-76
2023/09/26 09:38:08;;;;;;;5.53;4.83;;;;;;;16.21;74.93;101557.16;5033759;28;20306;-76
2023/09/26 09:40:38;;;;;;;6.60;4.77;;;;;;;16.49;73.18;101552.97;5033405;28;20606;-76
2023/09/26 09:43:07;;;;;;;8.97;4.83;;;;;;;16.49;73.98;101544.00;5033286;28;20261;-76
2023/09/26 09:45:38;;;;;;;9.20;3.93;;;;;;;16.73;72.13;101547.41;5034245;28;20257;-76
2023/09/26 09:48:10;;;;;;;5.27;4.43;;;;;;;16.87;71.16;101553.03;5033619;28;20242;-76
2023/09/26 09:50:39;;;;;;;4.47;4.07;;;;;;;16.93;72.09;101552.31;5033296;28;20283;-76
2023/09/26 09:53:09;;;;;;;4.97;4.00;;;;;;;17.07;70.81;101538.00;5033069;28;20709;-76
2023/09/26 09:55:38;;;;;;;7.40;4.10;;;;;;;17.19;70.04;101550.06;5033489;28;20238;-76
2023/09/26 09:58:11;;;;;;;3.80;3.20;;;;;;;17.31;70.36;101547.72;5033124;28;20215;-76
2023/09/26 10:00:41;;;;;;;4.67;3.63;;;;;;;17.35;69.95;101547.19;5033472;28;20195;-76
2023/09/26 10:03:11;;;;;;;4.50;3.80;;;;;;;17.48;68.26;101541.97;5032968;28;20229;-76
2023/09/26 10:05:40;;;;;;;4.80;3.77;;;;;;;17.61;68.49;101542.19;5034132;28;20294;-76
2023/09/26 10:08:10;;;;;;;4.47;3.50;;;;;;;17.71;68.19;101545.44;5033155;28;20665;-76
2023/09/26 10:10:40;;;;;;;5.50;3.43;;;;;;;17.87;67.24;101540.88;5032985;28;20743;-76
2023/09/26 10:13:10;;;;;;;6.00;3.37;;;;;;;17.97;67.85;101544.13;5033270;28;20226;-67
2023/09/26 10:16:14;;;;;;;4.40;2.80;;;;;;;18.09;67.38;101542.59;5033511;28;20281;-78
2023/09/26 10:18:46;;;;;;;4.30;3.33;;;;;;;18.12;65.85;101539.50;5033229;28;20191;-78
2023/09/26 10:21:23;;;;;;;3.30;2.87;;;;;;;18.33;65.49;101544.13;5033268;28;20281;-76
2023/09/26 10:24:23;;;;;;;2.97;2.50;;;;;;;18.44;65.98;101525.50;5032891;28;20316;-76
2023/09/26 10:26:53;;;;;;;3.63;3.00;;;;;;;18.65;64.89;101530.13;5037260;28;20265;-76
2023/09/26 10:29:25;;;;;;;5.43;3.30;;;;;;;18.70;65.50;101528.50;5036947;28;20560;-77
2023/09/26 10:31:56;;;;;;;3.50;3.20;;;;;;;18.89;62.79;101531.59;5037207;28;20195;-77
2023/09/26 10:34:29;;;;;;;3.03;2.70;;;;;;;18.93;64.22;101530.19;5036996;28;20244;-78
2023/09/26 10:37:20;;;;;;;5.60;2.97;;;;;;;18.98;63.69;101528.56;5037510;28;20203;-77
2023/09/26 10:39:49;;;;;;;3.93;2.80;;;;;;;19.09;64.61;101524.47;5037036;28;20222;-77
2023/09/26 10:42:20;;;;;;;3.83;3.00;;;;;;;19.24;63.50;101525.22;5036686;28;20661;-77
2023/09/26 10:44:53;;;;;;;4.00;3.17;;;;;;;19.32;64.09;101527.75;5036907;28;20318;-77
2023/09/26 10:47:23;;;;;;;5.03;3.27;;;;;;;19.42;63.89;101525.56;5036925;28;20198;-77
2023/09/26 10:49:52;;;;;;;3.67;2.80;;;;;;;19.63;61.71;101519.22;5036876;28;20261;-77
2023/09/26 10:52:25;;;;;;;3.47;2.60;;;;;;;19.68;62.69;101517.59;5036678;28;20211;-76
2023/09/26 10:54:54;;;;;;;3.03;2.50;;;;;;;19.82;60.76;101513.06;5036794;28;20227;-77
2023/09/26 10:57:22;;;;;;;4.23;2.40;;;;;;;19.87;61.62;101510.56;5036762;28;20202;-77
2023/09/26 10:59:54;;;;;;;6.10;2.50;;;;;;;20.09;59.57;101514.00;5036696;28;20577;-77
2023/09/26 11:02:23;;;;;;;4.03;2.60;;;;;;;20.11;60.61;101522.78;5036670;28;20241;-77
2023/09/26 11:04:52;;;;;;;4.13;2.50;;;;;;;20.23;59.42;101511.13;5036486;28;20227;-77
2023/09/26 11:07:20;;;;;;;3.97;2.47;;;;;;;20.37;58.44;101512.03;5036542;28;20265;-78
2023/09/26 11:09:49;;;;;;;3.73;2.60;;;;;;;20.61;58.08;101502.44;5036458;28;20301;-77
2023/09/26 11:12:18;;;;;;;3.50;2.50;;;;;;;20.67;58.83;101502.47;5036140;28;20214;-77
2023/09/26 11:14:47;;;;;;;3.10;2.73;;;;;;;20.75;59.31;101506.88;5036332;28;20258;-77
2023/09/26 11:17:17;;;;;;;2.70;2.50;;;;;;;20.86;57.68;101510.81;5036388;28;20257;-77
2023/09/26 11:19:46;;;;;;;3.43;2.60;;;;;;;21.01;56.19;101498.69;5036556;28;20207;-77
2023/09/26 11:22:14;;;;;;;4.67;2.67;;;;;;;21.18;56.75;101499.13;5036476;28;20207;-77
2023/09/26 11:24:43;;;;;;;3.13;2.50;;;;;;;21.19;55.72;101489.91;5035845;28;20245;-77
2023/09/26 11:27:15;;;;;;;3.30;2.40;;;;;;;21.33;56.72;101496.19;5035859;28;20730;-78
2023/09/26 11:29:43;;;;;;;3.10;2.60;;;;;;;21.39;56.25;101490.72;5036251;28;20261;-77
2023/09/26 11:32:12;;;;;;;2.67;2.47;;;;;;;21.57;54.84;101485.44;5036128;28;20301;-78
2023/09/26 11:34:44;;;;;;;3.47;2.50;;;;;;;21.64;56.82;101478.03;5035926;28;20226;-77
2023/09/26 11:37:15;;;;;;;3.77;2.57;;;;;;;21.84;53.98;101477.16;5035368;28;20195;-77
2023/09/26 11:39:51;;;;;;;3.43;2.20;;;;;;;21.92;52.63;101474.22;5036494;28;20238;-77